ARCK1: Arkansas Riv, ARk City, KS

Data processed at Wed May 23 2018 23:05


All information presented herein is the property of the government of the United States of America and may be revised or deleted at any time without prior notice.
Dissemination of this information without the expressed written consent of the Public Affairs Office, Tulsa District U.S. Army Corps of Engineers is strictly prohibited.
These data are gathered electronically and, as presented, have not undergone any form of quality control. These data are not guaranteed to be valid or correct.
Go to home page.
Go to station list.

Upstream stations:

Downstream station:
Previous Day
Next Day
Current Day
    
SHEF ID:       ARCK1     ARKANSAS R AT ARKANSAS CITY, KS
STATION TYPE:  

               PRECIP     STAGE  RIV-FLOW  BAT-LOAD
                   in        ft       cfs      volt
              Ccp-Rev   Ccp-Rev   Ccp-Rev   Ccp-Rev
(US/Central)
05/21 00:00      0.00      4.62      1493     12.17
05/21 01:00      0.00      4.60      1470     12.09
05/21 02:00      0.00      4.58      1447     12.09
05/21 03:00      0.00      4.55      1413     12.09
05/21 04:00      0.00      4.54      1401     12.09
05/21 05:00      0.00      4.52      1379     12.09
05/21 06:00      0.00      4.49      1346     12.09
05/21 07:00      0.00      4.48      1335     12.09
05/21 08:00      0.00      4.45      1302     12.09
05/21 09:00      0.00      4.42      1269     12.17
05/21 10:00      0.00      4.41      1259     12.57
05/21 11:00      0.00      4.38      1227     13.05
05/21 12:00      0.00      4.38      1227     13.13
05/21 13:00      0.00      4.36      1206     12.81
05/21 14:00      0.00      4.34      1185     13.13
05/21 15:00      0.00      4.32      1165     13.21
05/21 16:00      0.00      4.30      1144     13.37
05/21 17:00      0.00      4.28      1124     13.60
05/21 18:00      0.00      4.26      1104     13.37
05/21 19:00      0.00      4.23      1074     12.97
05/21 20:00      0.00      4.21      1054     12.57
05/21 21:00      0.00      4.19      1035     12.41
05/21 22:00      0.00      4.18      1025     12.33
05/21 23:00      0.00      4.16      1006     12.33